LSZL 192320Z AUTO 00000KT 9999NDV NCD 17/14 Q1027 RMK LSZL 192220Z AUTO 00000KT 9999NDV NCD 19/15 Q1027 RMK LSZL 192150Z AUTO 21004KT 160V260 9999NDV NCD 20/15 Q1027 RMK LSZL 192120Z AUTO VRB02KT 9999NDV FEW210 20/15 Q1027 RMK LSZL 192020Z AUTO 25006KT 220V290 9999NDV FEW150 20/15 Q1026 RMK LSZL 191950Z AUTO 25008KT 210V290 9999NDV RA FEW044 SCT056 BKN094 20/15 Q1026 RMK LSZL 191920Z AUTO 23009KT 170V250 9999NDV -RA FEW050 BKN090 23/14 Q1026 RMK LSZL 191850Z AUTO 25003KT 9999NDV BKN072 21/16 Q1026 RMK LSZL 191820Z AUTO 19003KT 160V220 9999NDV FEW085 23/15 Q1025 RMK LSZL 191750Z AUTO 00000KT 9999NDV NCD 24/14 Q1025 RMK LSZL 191720Z AUTO VRB02KT 9999NDV NCD 23/17 Q1024 RMK LSZL 191650Z AUTO 00000KT 9999NDV NCD 26/14 Q1024 RMK LSZL 191620Z AUTO VRB02KT 9999NDV NCD 26/14 Q1024 RMK LSZL 191550Z AUTO 27003KT 230V320 9999NDV NCD 26/13 Q1024 RMK LSZL 191520Z AUTO 25003KT 210V320 9999NDV NCD 26/13 Q1024 RMK LSZL 191450Z AUTO 25003KT 200V300 9999NDV NCD 27/14 Q1024 RMK LSZL 191420Z 27006KT 230V320 CAVOK 26/13 Q1025 RMK BLU LSZL 191350Z 28006KT 230V330 CAVOK 26/13 Q1025 RMK BLU LSZL 191320Z 24005KT 210V280 CAVOK 25/14 Q1025 RMK BLU LSZL 191250Z 25004KT 190V290 CAVOK 25/13 Q1025 RMK BLU LSZL 191220Z 26005KT 220V300 9999 FEW080 25/13 Q1025 RMK BLU+ LSZL 191150Z 26005KT 230V320 9999 FEW080 24/14 Q1026 RMK BLU+ LSZL 191120Z 26005KT 230V300 9999 FEW080 24/12 Q1026 RMK BLU+ LSZL 191050Z 25006KT 230V290 9999 FEW090 24/12 Q1026 RMK BLU+ LSZL 190950Z 25005KT 230V300 CAVOK 24/11 Q1027 RMK BLU LSZL 190920Z 25004KT CAVOK 23/09 Q1027 RMK BLU LSZL 190850Z 29003KT 230V010 CAVOK 23/10 Q1027 RMK BLU LSZL 190820Z 27003KT 230V310 CAVOK 22/10 Q1027 RMK BLU LSZL 190750Z 25004KT 200V280 9999 FEW080 22/10 Q1027 RMK BLU+ LSZL 190720Z 26006KT 9999 FEW098 22/12 Q1027 RMK BLU+ LSZL 190650Z 24005KT 9999 SCT100 22/11 Q1027 RMK BLU+ LSZL 190620Z 22003KT 9999 SCT075 BKN100 21/12 Q1027 RMK BLU LSZL 190550Z VRB02KT 9999 FEW055 BKN080 21/12 Q1027 RMK BLU LSZL 190520Z 24003KT 200V280 9999 FEW050 SCT075 BKN100 20/12 Q1027 RMK BLU LSZL 190450Z AUTO 21004KT 9999NDV FEW064 BKN078 21/12 Q1027 RMK LSZL 190420Z AUTO VRB02KT 9999NDV FEW064 BKN075 21/12 Q1026 RMK LSZL 190350Z AUTO VRB03KT 9999NDV BKN073 20/12 Q1026 RMK LSZL 190320Z AUTO VRB02KT 9999NDV BKN071 22/11 Q1026 RMK LSZL 190250Z AUTO 28006KT 240V330 9999NDV BKN074 BKN088 22/11 Q1026 RMK LSZL 190150Z AUTO 29006KT 260V340 9999NDV BKN067 22/12 Q1026 RMK LSZL 190120Z AUTO 29003KT 250V360 9999NDV FEW053 BKN061 22/12 Q1025 RMK LSZL 190050Z AUTO 28003KT 200V350 9999NDV BKN055 22/13 Q1025 RMK LSZL 190020Z AUTO 28004KT 240V310 9999NDV BKN056 22/15 Q1025 RMK LSZL 182350Z AUTO VRB02KT 9999NDV BKN054 22/14 Q1025 RMK LSZL 182320Z AUTO VRB03KT 9999NDV BKN053 23/13 Q1025 RMK LSZL 182250Z AUTO 27004KT 230V340 9999NDV BKN056 22/15 Q1024 RMK LSZL 182220Z AUTO VRB02KT 9999NDV BKN053 23/14 Q1024 RMK LSZL 182150Z AUTO VRB03KT 9999NDV BKN057 23/15 Q1024 RMK LSZL 182120Z AUTO 28003KT 230V330 9999NDV BKN056 23/15 Q1024 RMK LSZL 182050Z AUTO VRB01KT 9999NDV BKN057 23/17 Q1023 RMK LSZL 182020Z AUTO VRB02KT 9999NDV BKN059 24/15 Q1023 RMK LSZL 181950Z AUTO 32003KT 270V050 9999NDV BKN058 BKN066 24/16 Q1022 RMK LSZL 181920Z AUTO 00000KT 9999NDV BKN058 23/17 Q1022 RMK LSZL 181850Z AUTO VRB02KT 9999NDV FEW059 SCT073 24/16 Q1021 RMK LSZL 181820Z AUTO VRB02KT 9999NDV SCT062 25/16 Q1021 RMK LSZL 181750Z AUTO 00000KT 9999NDV FEW065 25/16 Q1021 RMK LSZL 181650Z AUTO 31004KT 250V010 9999NDV SCT064 26/16 Q1020 RMK LSZL 181620Z AUTO VRB03KT 9999NDV FEW062 SCT074 27/16 Q1020 RMK LSZL 181550Z AUTO 28004KT 210V010 9999NDV SCT064 27/17 Q1020 RMK LSZL 181520Z AUTO VRB02KT 9999NDV SCT060 28/17 Q1020 RMK LSZL 181450Z 31003KT 230V040 9999 FEW040 SCT055 29/17 Q1020 RMK BLU+ LSZL 181420Z VRB02KT 9999 FEW040 SCT055 29/16 Q1020 RMK BLU+ LSZL 181350Z 25004KT 200V290 9999 FEW055 SCT080 28/16 Q1020 RMK BLU+ LSZL 181320Z 26005KT 230V320 CAVOK 28/16 Q1020 RMK BLU LSZL 181250Z 27005KT 230V310 9999 FEW055 SCT080 27/17 Q1020 RMK BLU+ LSZL 181220Z 24005KT 210V290 9999 FEW050 SCT070 27/15 Q1021 RMK BLU+

METAR Messwerte "LOCARNO" LSZL

Zurück zur Übersicht

Ortsname
Ländercode / m ü. NN
Zeit Temperatur Taupunkt Rel.
Luftfeuchte
Luftdruck:
Altimeter
NN
Station
Wind in Beaufort
(Knoten)
Sichtweite
(Meter)
Wolken
(Meter über Grund)
Wettererscheinung
LOCARNO
CH 198
Fr 20.05. 01:20171482 %1027
1027
1003
Windstill   
LOCARNO
CH 198
Fr 20.05. 00:20191578 %1027
1027
1003
Windstill   
LOCARNO
CH 198
Do 19.05. 23:50201573 %1027
1027
1003
SSW 2 (4)
SSO - W
   
LOCARNO
CH 198
Do 19.05. 23:20201573 %1027
1027
1003
Uml 1 (2) Leicht bewölkt (6400) 
LOCARNO
CH 198
Do 19.05. 22:20201573 %1026
1026
1002
WSW 2 (6)
SW - WNW
 Leicht bewölkt (4600) 
LOCARNO
CH 198
Do 19.05. 21:50201573 %1026
1026
1002
WSW 3 (8)
SSW - WNW
 Stark bewölkt (2900)
Wolkig (1700)
Leicht bewölkt (1300)
Regen
LOCARNO
CH 198
Do 19.05. 21:20231457 %1026
1025
1002
SW 3 (9)
S - WSW
 Stark bewölkt (2700)
Leicht bewölkt (1500)
Regen (schwach)
LOCARNO
CH 198
Do 19.05. 20:50211673 %1026
1026
1002
WSW 2 (3) Stark bewölkt (2200) 
LOCARNO
CH 198
Do 19.05. 20:20231561 %1025
1024
1001
S 2 (3)
SSO - SW
 Leicht bewölkt (2600) 
LOCARNO
CH 198
Do 19.05. 19:50241454 %1025
1024
1001
Windstill   
LOCARNO
CH 198
Do 19.05. 19:20231769 %1024
1023
1000
Uml 1 (2)   
LOCARNO
CH 198
Do 19.05. 18:50261448 %1024
1023
1000
Windstill   
LOCARNO
CH 198
Do 19.05. 18:20261448 %1024
1023
1000
Uml 1 (2)   
LOCARNO
CH 198
Do 19.05. 17:50261345 %1024
1023
1000
W 2 (3)
SW - NW
   
LOCARNO
CH 198
Do 19.05. 17:20261345 %1024
1023
1000
WSW 2 (3)
SSW - NW
   
LOCARNO
CH 198
Do 19.05. 16:50271445 %1024
1023
1000
WSW 2 (3)
SSW - WNW
   
LOCARNO
CH 198
Do 19.05. 16:20261345 %1025
1024
1001
W 2 (6)
SW - NW
>= 10000Nicht signifikant 
LOCARNO
CH 198
Do 19.05. 15:50261345 %1025
1024
1001
W 2 (6)
SW - NNW
>= 10000Nicht signifikant 
LOCARNO
CH 198
Do 19.05. 15:20251450 %1025
1024
1001
WSW 2 (5)
SSW - W
>= 10000Nicht signifikant 
LOCARNO
CH 198
Do 19.05. 14:50251347 %1025
1024
1001
WSW 2 (4)
S - WNW
>= 10000Nicht signifikant 
LOCARNO
CH 198
Do 19.05. 14:20251347 %1025
1024
1001
W 2 (5)
SW - WNW
>= 10000Leicht bewölkt (2400) 
LOCARNO
CH 198
Do 19.05. 13:50241454 %1026
1025
1002
W 2 (5)
SW - NW
>= 10000Leicht bewölkt (2400) 
LOCARNO
CH 198
Do 19.05. 13:20241247 %1026
1025
1002
W 2 (5)
SW - WNW
>= 10000Leicht bewölkt (2400) 
LOCARNO
CH 198
Do 19.05. 12:50241247 %1026
1025
1002
WSW 2 (6)
SW - WNW
>= 10000Leicht bewölkt (2700) 
LOCARNO
CH 198
Do 19.05. 11:50241144 %1027
1026
1003
WSW 2 (5)
SW - WNW
>= 10000Nicht signifikant 
LOCARNO
CH 198
Do 19.05. 11:2023941 %1027
1026
1003
WSW 2 (4)>= 10000Nicht signifikant 
LOCARNO
CH 198
Do 19.05. 10:50231044 %1027
1026
1003
WNW 2 (3)
SW - N
>= 10000Nicht signifikant 
LOCARNO
CH 198
Do 19.05. 10:20221046 %1027
1026
1003
W 2 (3)
SW - NW
>= 10000Nicht signifikant 
LOCARNO
CH 198
Do 19.05. 09:50221046 %1027
1026
1003
WSW 2 (4)
SSW - W
>= 10000Leicht bewölkt (2400) 
LOCARNO
CH 198
Do 19.05. 09:20221253 %1027
1026
1003
W 2 (6)>= 10000Leicht bewölkt (3000) 
LOCARNO
CH 198
Do 19.05. 08:50221150 %1027
1026
1003
WSW 2 (5)>= 10000Wolkig (3000) 
LOCARNO
CH 198
Do 19.05. 08:20211256 %1027
1027
1003
SW 2 (3)>= 10000Stark bewölkt (3000)
Wolkig (2300)
 
LOCARNO
CH 198
Do 19.05. 07:50211256 %1027
1027
1003
Uml 1 (2)>= 10000Stark bewölkt (2400)
Leicht bewölkt (1700)
 
LOCARNO
CH 198
Do 19.05. 07:20201260 %1027
1027
1003
WSW 2 (3)
SSW - W
>= 10000Stark bewölkt (3000)
Wolkig (2300)
Leicht bewölkt (1500)
 
LOCARNO
CH 198
Do 19.05. 06:50211256 %1027
1027
1003
SSW 2 (4) Stark bewölkt (2400)
Leicht bewölkt (2000)
 
LOCARNO
CH 198
Do 19.05. 06:20211256 %1026
1026
1002
Uml 1 (2) Stark bewölkt (2300)
Leicht bewölkt (2000)
 
LOCARNO
CH 198
Do 19.05. 05:50201260 %1026
1026
1002
Uml 2 (3) Stark bewölkt (2200) 
LOCARNO
CH 198
Do 19.05. 05:20221150 %1026
1025
1002
Uml 1 (2) Stark bewölkt (2200) 
LOCARNO
CH 198
Do 19.05. 04:50221150 %1026
1025
1002
W 2 (6)
WSW - NNW
 Stark bewölkt (2700)
Stark bewölkt (2300)
 
LOCARNO
CH 198
Do 19.05. 03:50221253 %1026
1025
1002
WNW 2 (6)
W - NNW
 Stark bewölkt (2000) 
LOCARNO
CH 198
Do 19.05. 03:20221253 %1025
1024
1001
WNW 2 (3)
WSW - N
 Stark bewölkt (1900)
Leicht bewölkt (1600)
 
LOCARNO
CH 198
Do 19.05. 02:50221357 %1025
1024
1001
W 2 (3)
SSW - N
 Stark bewölkt (1700) 
LOCARNO
CH 198
Do 19.05. 02:20221565 %1025
1024
1001
W 2 (4)
WSW - NW
 Stark bewölkt (1700) 
LOCARNO
CH 198
Do 19.05. 01:50221460 %1025
1024
1001
Uml 1 (2) Stark bewölkt (1600) 
LOCARNO
CH 198
Do 19.05. 01:20231353 %1025
1024
1001
Uml 2 (3) Stark bewölkt (1600) 
LOCARNO
CH 198
Do 19.05. 00:50221565 %1024
1023
1000
W 2 (4)
SW - NNW
 Stark bewölkt (1700) 
LOCARNO
CH 198
Do 19.05. 00:20231457 %1024
1023
1000
Uml 1 (2) Stark bewölkt (1600) 
LOCARNO
CH 198
Mi 18.05. 23:50231561 %1024
1023
1000
Uml 2 (3) Stark bewölkt (1700) 
LOCARNO
CH 198
Mi 18.05. 23:20231561 %1024
1023
1000
W 2 (3)
SW - NNW
 Stark bewölkt (1700) 
LOCARNO
CH 198
Mi 18.05. 22:50231769 %1023
1022
999
Uml 1 (1) Stark bewölkt (1700) 
LOCARNO
CH 198
Mi 18.05. 22:20241557 %1023
1022
999
Uml 1 (2) Stark bewölkt (1800) 
LOCARNO
CH 198
Mi 18.05. 21:50241661 %1022
1021
998
NW 2 (3)
W - NO
 Stark bewölkt (2000)
Stark bewölkt (1800)
 
LOCARNO
CH 198
Mi 18.05. 21:20231769 %1022
1021
998
Windstill Stark bewölkt (1800) 
LOCARNO
CH 198
Mi 18.05. 20:50241661 %1021
1020
997
Uml 1 (2) Wolkig (2200)
Leicht bewölkt (1800)
 
LOCARNO
CH 198
Mi 18.05. 20:20251657 %1021
1020
997
Uml 1 (2) Wolkig (1900) 
LOCARNO
CH 198
Mi 18.05. 19:50251657 %1021
1020
997
Windstill Leicht bewölkt (2000) 
LOCARNO
CH 198
Mi 18.05. 18:50261654 %1020
1019
996
NW 2 (4)
WSW - N
 Wolkig (2000) 
LOCARNO
CH 198
Mi 18.05. 18:20271651 %1020
1019
996
Uml 2 (3) Wolkig (2300)
Leicht bewölkt (1900)
 
LOCARNO
CH 198
Mi 18.05. 17:50271754 %1020
1019
996
W 2 (4)
SSW - N
 Wolkig (2000) 
LOCARNO
CH 198
Mi 18.05. 17:20281751 %1020
1019
996
Uml 1 (2) Wolkig (1800) 
LOCARNO
CH 198
Mi 18.05. 16:50291748 %1020
1019
996
NW 2 (3)
SW - NO
>= 10000Wolkig (1700)
Leicht bewölkt (1200)
 
LOCARNO
CH 198
Mi 18.05. 16:20291645 %1020
1019
996
Uml 1 (2)>= 10000Wolkig (1700)
Leicht bewölkt (1200)
 
LOCARNO
CH 198
Mi 18.05. 15:50281648 %1020
1019
996
WSW 2 (4)
SSW - WNW
>= 10000Wolkig (2400)
Leicht bewölkt (1700)
 
LOCARNO
CH 198
Mi 18.05. 15:20281648 %1020
1019
996
W 2 (5)
SW - NW
>= 10000Nicht signifikant 
LOCARNO
CH 198
Mi 18.05. 14:50271754 %1020
1019
996
W 2 (5)
SW - NW
>= 10000Wolkig (2400)
Leicht bewölkt (1700)
 
LOCARNO
CH 198
Mi 18.05. 14:20271548 %1021
1020
997
WSW 2 (5)
SSW - WNW
>= 10000Wolkig (2100)
Leicht bewölkt (1500)
 

Altimeter: Einstellung am Altimeter (Höhenmesser), die Höhe 0 muss auf diesen Luftdruckwert zeigen, damit das Gerät die Stationshöhe richtig anzeigt.

NN: Luftdruck reduziert auf "Normal Null", auf Meereshöhe, dieser von der Temperatur abhängige Wert wird bisweilen unkorrekt einfach als "Luftdruck" bezeichnet. Eigentlich nur eine fiktive Größe, die es erlaubt, Stationen auf unterschiedlichen Höhen miteinander zu vergleichen.

Station: Realer Luftdruck an der Station.